Time;durP1;ratioP1;P1;durP2;ratioP2;P2;SDS_P1;SDS_P2;PMS_P1;PMS_P2;Temp;Humidity;BMP_temperature;BMP_pressure;BME280_temperature;BME280_humidity;BME280_pressure;Samples;Min_cycle;Max_cycle;Signal;HPM_P1;HPM_P2
2022/07/23 00:00:20;;;;;;;3.42;1.75;;;15.30;99.90;;;;;;5024666;28;20037;-95
2022/07/23 00:02:47;;;;;;;3.58;1.58;;;15.30;99.90;;;;;;4989009;28;20061;-93
2022/07/23 00:05:17;;;;;;;3.47;1.90;;;15.20;99.90;;;;;;5007696;28;20199;-95
2022/07/23 00:07:43;;;;;;;8.75;2.30;;;15.20;99.90;;;;;;4990647;28;20110;-95
2022/07/23 00:10:09;;;;;;;7.70;2.20;;;14.40;99.90;;;;;;5023879;28;20061;-94
2022/07/23 00:12:36;;;;;;;3.85;1.90;;;15.20;99.90;;;;;;5024546;28;20053;-94
2022/07/23 00:15:05;;;;;;;7.25;2.70;;;15.10;99.90;;;;;;5024253;28;20052;-94
2022/07/23 00:17:32;;;;;;;4.72;2.95;;;15.10;99.90;;;;;;5006866;28;20136;-93
2022/07/23 00:20:02;;;;;;;3.63;2.00;;;15.00;99.90;;;;;;5008079;28;20080;-94
2022/07/23 00:22:29;;;;;;;5.65;2.50;;;13.90;99.90;;;;;;5024244;28;20064;-95
2022/07/23 00:24:56;;;;;;;3.47;2.42;;;14.90;99.90;;;;;;5008813;28;20068;-93
2022/07/23 00:27:22;;;;;;;6.85;2.53;;;14.90;99.90;;;;;;5024686;28;20108;-94
2022/07/23 00:29:49;;;;;;;4.90;2.40;;;14.80;99.90;;;;;;5023034;28;20529;-93
2022/07/23 00:32:18;;;;;;;5.40;2.50;;;14.80;99.90;;;;;;4991721;28;20061;-92
2022/07/23 00:34:45;;;;;;;4.70;2.67;;;14.70;99.90;;;;;;5008037;28;20049;-94
2022/07/23 00:37:11;;;;;;;4.47;2.65;;;14.50;99.90;;;;;;5023869;28;20132;-92
2022/07/23 00:39:38;;;;;;;7.20;2.97;;;14.60;99.90;;;;;;4991409;28;20080;-93
2022/07/23 00:42:05;;;;;;;5.43;2.72;;;14.60;99.90;;;;;;5006610;28;20108;-93
2022/07/23 00:44:31;;;;;;;7.47;3.20;;;14.60;99.90;;;;;;5007205;28;20069;-93
2022/07/23 00:46:59;;;;;;;8.98;3.50;;;14.50;99.90;;;;;;4975458;28;20260;-93
2022/07/23 00:49:28;;;;;;;7.90;2.60;;;14.50;99.90;;;;;;5007818;28;20041;-95
2022/07/23 00:51:54;;;;;;;4.38;2.80;;;14.50;99.90;;;;;;5023249;28;20041;-95
2022/07/23 00:54:28;;;;;;;9.53;2.57;;;14.40;99.90;;;;;;5025319;28;20571;-94
2022/07/23 00:56:59;;;;;;;5.80;2.53;;;14.40;99.90;;;;;;5024147;28;20291;-94
2022/07/23 00:59:25;;;;;;;3.88;2.53;;;14.40;99.90;;;;;;4975155;28;20037;-94
2022/07/23 01:01:51;;;;;;;3.92;2.10;;;14.40;99.90;;;;;;5024175;28;20041;-94
2022/07/23 01:04:17;;;;;;;6.38;2.30;;;14.40;99.90;;;;;;4976053;28;20563;-95
2022/07/23 01:06:45;;;;;;;9.73;2.35;;;13.90;99.90;;;;;;4991587;28;20045;-94
2022/07/23 01:09:11;;;;;;;5.25;2.50;;;15.10;99.90;;;;;;5026599;28;20124;-94
2022/07/23 01:11:37;;;;;;;8.95;2.75;;;14.40;99.90;;;;;;5012634;28;20199;-95
2022/07/23 01:14:18;;;;;;;6.60;2.92;;;14.60;99.90;;;;;;5029727;28;20041;-94
2022/07/23 01:16:46;;;;;;;9.00;2.60;;;14.50;99.90;;;;;;5030584;28;20038;-94
2022/07/23 01:19:13;;;;;;;7.32;3.00;;;14.50;99.90;;;;;;5044971;28;20045;-95
2022/07/23 01:21:50;;;;;;;4.97;3.28;;;14.60;99.90;;;;;;5028211;28;20097;-95
2022/07/23 01:24:19;;;;;;;5.15;2.90;;;14.60;99.90;;;;;;5028335;28;20132;-95
2022/07/23 01:27:02;;;;;;;5.57;2.80;;;14.60;99.90;;;;;;4996848;28;20052;-94
2022/07/23 01:29:27;;;;;;;5.25;2.58;;;14.60;99.90;;;;;;5015609;28;20045;-93
2022/07/23 01:32:02;;;;;;;5.43;2.60;;;15.80;99.90;;;;;;5016488;28;20100;-94
2022/07/23 01:34:28;;;;;;;5.75;2.60;;;14.60;99.90;;;;;;5031431;28;20079;-95
2022/07/23 01:36:57;;;;;;;3.65;2.38;;;14.50;99.90;;;;;;5014300;28;20033;-93
2022/07/23 01:39:25;;;;;;;2.83;2.05;;;14.70;99.90;;;;;;5000784;28;20052;-93
2022/07/23 01:41:58;;;;;;;4.68;2.65;;;14.70;99.90;;;;;;5030778;28;20037;-92
2022/07/23 01:44:24;;;;;;;4.75;2.13;;;14.90;99.90;;;;;;5027876;28;20500;-93
2022/07/23 01:46:49;;;;;;;5.80;2.80;;;15.30;99.90;;;;;;5008527;28;20064;-94
2022/07/23 01:49:15;;;;;;;4.63;3.00;;;14.70;99.90;;;;;;4992838;28;20053;-94
2022/07/23 01:51:59;;;;;;;5.20;2.00;;;14.70;99.90;;;;;;5024540;28;20041;-94
2022/07/23 01:54:33;;;;;;;5.07;2.13;;;14.80;99.90;;;;;;5024086;28;20045;-95
2022/07/23 01:57:02;;;;;;;2.97;2.15;;;14.80;99.90;;;;;;5008167;28;20071;-95
2022/07/23 01:59:28;;;;;;;12.32;2.70;;;14.80;99.90;;;;;;4989584;28;20060;-94
2022/07/23 02:01:55;;;;;;;5.47;2.33;;;14.80;99.90;;;;;;5021879;28;20117;-94
2022/07/23 02:04:23;;;;;;;5.50;1.83;;;14.80;99.90;;;;;;5021012;28;20048;-94
2022/07/23 02:06:49;;;;;;;4.70;2.50;;;14.80;99.90;;;;;;5005809;28;20049;-95
2022/07/23 02:09:15;;;;;;;3.33;1.65;;;14.80;99.90;;;;;;5021722;28;20416;-93
2022/07/23 02:11:41;;;;;;;3.72;1.98;;;14.00;99.90;;;;;;5025447;28;20044;-95
2022/07/23 02:14:16;;;;;;;4.47;1.67;;;14.90;99.90;;;;;;5042705;28;20049;-96
2022/07/23 02:16:50;;;;;;;5.38;2.15;;;14.90;99.90;;;;;;5041419;28;20053;-92
2022/07/23 02:19:17;;;;;;;4.10;1.80;;;14.90;99.90;;;;;;5038650;28;20032;-94
2022/07/23 02:21:44;;;;;;;6.63;1.80;;;14.90;99.90;;;;;;5022557;28;20045;-94
2022/07/23 02:24:10;;;;;;;5.10;1.80;;;13.90;99.90;;;;;;5039189;28;20052;-94
2022/07/23 02:26:37;;;;;;;6.15;2.30;;;14.90;99.90;;;;;;5006331;28;20055;-94
2022/07/23 02:29:03;;;;;;;3.28;1.42;;;14.90;99.90;;;;;;5024509;28;20080;-95
2022/07/23 02:31:30;;;;;;;4.43;1.52;;;14.90;99.90;;;;;;5038964;28;20045;-95
2022/07/23 02:33:55;;;;;;;5.47;1.77;;;14.90;99.90;;;;;;5040409;28;20053;-94
2022/07/23 02:36:22;;;;;;;2.63;1.27;;;15.00;99.90;;;;;;5038467;28;20067;-95
2022/07/23 02:38:48;;;;;;;4.88;1.75;;;15.00;99.90;;;;;;5038908;28;20055;-93
2022/07/23 02:41:26;;;;;;;5.68;1.95;;;15.00;99.90;;;;;;5041685;28;20079;-93
2022/07/23 02:43:57;;;;;;;6.43;1.88;;;15.00;99.90;;;;;;5038996;28;20571;-95
2022/07/23 02:46:23;;;;;;;8.55;1.90;;;15.60;99.90;;;;;;5023809;28;20072;-93
2022/07/23 02:48:49;;;;;;;3.17;1.60;;;15.00;99.90;;;;;;5054887;28;20073;-93
2022/07/23 02:51:15;;;;;;;9.38;1.75;;;15.00;99.90;;;;;;5040059;28;20048;-93
2022/07/23 02:53:41;;;;;;;4.20;1.83;;;14.50;99.90;;;;;;5039229;28;20041;-94
2022/07/23 02:56:07;;;;;;;3.22;1.70;;;15.10;99.90;;;;;;5056478;28;20056;-93
2022/07/23 02:58:34;;;;;;;7.38;2.03;;;15.00;99.90;;;;;;5038588;28;20052;-93
2022/07/23 03:01:00;;;;;;;5.43;1.85;;;15.10;99.90;;;;;;5022289;28;20136;-94
2022/07/23 03:03:26;;;;;;;5.45;2.42;;;15.00;99.90;;;;;;5040645;28;20156;-92
2022/07/23 03:05:52;;;;;;;2.67;1.63;;;15.00;99.90;;;;;;5006974;28;20492;-94
2022/07/23 03:08:18;;;;;;;4.20;1.92;;;15.70;99.90;;;;;;5006101;28;20055;-94
2022/07/23 03:10:44;;;;;;;4.78;2.28;;;15.00;99.90;;;;;;5022845;28;20041;-94
2022/07/23 03:13:10;;;;;;;4.90;1.95;;;15.00;99.90;;;;;;5041717;28;20038;-94
2022/07/23 03:15:36;;;;;;;3.10;1.90;;;15.00;99.90;;;;;;4979391;28;20062;-96
2022/07/23 03:18:02;;;;;;;5.43;2.20;;;15.00;99.90;;;;;;4961611;28;20430;-96
2022/07/23 03:20:29;;;;;;;5.22;2.00;;;15.00;99.90;;;;;;4943922;28;20115;-94
2022/07/23 03:22:55;;;;;;;9.00;2.00;;;15.80;99.90;;;;;;4929416;28;20043;-95
2022/07/23 03:25:21;;;;;;;7.88;1.80;;;15.00;99.90;;;;;;4978534;28;20150;-94
2022/07/23 03:27:51;;;;;;;3.33;1.80;;;15.00;99.90;;;;;;4960824;28;20285;-94
2022/07/23 03:30:16;;;;;;;3.38;1.90;;;15.00;99.90;;;;;;4946323;28;20058;-95
2022/07/23 03:32:42;;;;;;;3.45;1.73;;;15.00;99.90;;;;;;4963445;28;20034;-94
2022/07/23 03:35:10;;;;;;;4.13;1.67;;;15.00;99.90;;;;;;4997031;28;20054;-95
2022/07/23 03:37:42;;;;;;;2.58;1.50;;;15.00;99.90;;;;;;4963374;28;20109;-94
2022/07/23 03:40:08;;;;;;;3.33;1.80;;;15.90;99.90;;;;;;4961822;28;20051;-94
2022/07/23 03:42:34;;;;;;;5.88;2.25;;;15.00;99.90;;;;;;4981409;28;20082;-95
2022/07/23 03:45:07;;;;;;;4.72;2.00;;;15.00;99.90;;;;;;4949955;28;20153;-95
2022/07/23 03:47:34;;;;;;;9.82;2.30;;;15.00;99.90;;;;;;5016955;28;20046;-93
2022/07/23 03:50:03;;;;;;;5.18;2.08;;;15.00;99.90;;;;;;5023373;28;20392;-94
2022/07/23 03:52:29;;;;;;;4.35;2.22;;;15.00;99.90;;;;;;5042027;28;20079;-96
2022/07/23 03:54:55;;;;;;;3.03;2.20;;;14.70;99.90;;;;;;5042584;28;20500;-94
2022/07/23 03:57:21;;;;;;;5.22;2.05;;;14.80;99.90;;;;;;5025757;28;20408;-95
2022/07/23 03:59:46;;;;;;;3.50;1.90;;;14.90;99.90;;;;;;5041962;28;20048;-96
2022/07/23 04:02:14;;;;;;;6.30;2.22;;;15.00;99.90;;;;;;5043710;28;20087;-95
2022/07/23 04:04:40;;;;;;;4.80;2.42;;;15.00;99.90;;;;;;5042465;28;20117;-95
2022/07/23 04:07:07;;;;;;;4.25;2.05;;;15.00;99.90;;;;;;5023255;28;20081;-94
2022/07/23 04:09:40;;;;;;;7.05;3.25;;;14.40;99.90;;;;;;4993919;28;20092;-96
2022/07/23 04:12:07;;;;;;;3.15;2.15;;;15.00;99.90;;;;;;5007211;28;20050;-94
2022/07/23 04:14:33;;;;;;;4.57;1.60;;;14.90;99.90;;;;;;4991120;28;20476;-96
2022/07/23 04:16:59;;;;;;;4.75;1.50;;;15.00;99.90;;;;;;5006998;28;20041;-96
2022/07/23 04:19:39;;;;;;;6.68;2.30;;;15.00;99.90;;;;;;5025940;28;20589;-93
2022/07/23 04:22:06;;;;;;;5.38;2.10;;;15.00;99.90;;;;;;5022702;28;20392;-94
2022/07/23 04:24:32;;;;;;;2.47;2.05;;;16.00;99.90;;;;;;5024380;28;20084;-94
2022/07/23 04:26:58;;;;;;;4.25;2.30;;;15.10;99.90;;;;;;5040495;28;20076;-95
2022/07/23 04:29:24;;;;;;;4.85;2.15;;;15.00;99.90;;;;;;5024634;28;20037;-94
2022/07/23 04:31:56;;;;;;;7.25;2.13;;;15.00;99.90;;;;;;5026726;28;20068;-93
2022/07/23 04:34:29;;;;;;;4.95;2.35;;;15.10;99.90;;;;;;4996698;28;20045;-95
2022/07/23 04:36:56;;;;;;;4.80;2.60;;;15.10;99.90;;;;;;5011799;28;20045;-96
2022/07/23 04:39:28;;;;;;;4.95;2.33;;;15.10;99.90;;;;;;5011372;28;20047;-96
2022/07/23 04:42:13;;;;;;;4.93;2.22;;;15.10;99.90;;;;;;5044509;28;20064;-95
2022/07/23 04:44:40;;;;;;;;;;;15.10;99.90;;;;;;5029382;28;20065;-96
2022/07/23 04:47:05;;;;;;;5.15;2.13;;;15.20;99.90;;;;;;5032066;28;19924;-94
2022/07/23 04:49:35;;;;;;;6.18;2.38;;;15.20;99.90;;;;;;5023511;28;20053;-95
2022/07/23 04:52:04;;;;;;;7.82;2.28;;;16.00;99.90;;;;;;5006261;28;20042;-95
2022/07/23 04:54:29;;;;;;;5.03;2.53;;;15.20;99.90;;;;;;4998990;28;20079;-94
2022/07/23 04:56:55;;;;;;;4.53;2.72;;;15.20;99.90;;;;;;5000074;28;20025;-94
2022/07/23 04:59:22;;;;;;;3.85;2.50;;;16.30;99.90;;;;;;5002660;28;20037;-92
2022/07/23 05:01:47;;;;;;;4.88;2.28;;;15.20;99.90;;;;;;5018517;28;20037;-96
2022/07/23 05:04:13;;;;;;;6.82;2.53;;;15.20;99.90;;;;;;5023301;28;20455;-92
2022/07/23 05:06:39;;;;;;;4.32;1.98;;;15.20;99.90;;;;;;5034734;28;20049;-92
2022/07/23 05:09:05;;;;;;;5.57;2.80;;;15.20;99.90;;;;;;5003884;28;20076;-91
2022/07/23 05:11:30;;;;;;;4.25;2.35;;;15.30;99.90;;;;;;5024528;28;20140;-92
2022/07/23 05:13:56;;;;;;;3.70;2.30;;;15.40;99.90;;;;;;5010707;28;20080;-92
2022/07/23 05:16:22;;;;;;;3.83;2.20;;;15.50;99.90;;;;;;5014711;28;20044;-93
2022/07/23 05:18:47;;;;;;;4.85;2.53;;;15.40;99.90;;;;;;5044403;28;20062;-92
2022/07/23 05:21:13;;;;;;;4.80;1.98;;;15.60;99.90;;;;;;4986795;28;20045;-91
2022/07/23 05:23:39;;;;;;;4.72;2.17;;;15.50;99.90;;;;;;4985225;28;20057;-92
2022/07/23 05:26:05;;;;;;;7.28;2.35;;;15.50;99.90;;;;;;5000741;28;20041;-91
2022/07/23 05:28:30;;;;;;;3.15;2.13;;;15.60;99.90;;;;;;5041530;28;20109;-93
2022/07/23 05:30:56;;;;;;;4.22;2.38;;;15.60;99.90;;;;;;5024226;28;20104;-91
2022/07/23 05:33:22;;;;;;;4.65;2.05;;;16.10;99.90;;;;;;5009183;28;20048;-93
2022/07/23 05:35:47;;;;;;;6.50;2.10;;;15.60;99.90;;;;;;5040584;28;20060;-91
2022/07/23 05:38:13;;;;;;;5.93;2.15;;;15.60;99.90;;;;;;5020456;28;20100;-94
2022/07/23 05:40:39;;;;;;;5.00;1.80;;;15.60;99.90;;;;;;5016614;28;20041;-93
2022/07/23 05:43:04;;;;;;;2.95;1.80;;;16.70;99.90;;;;;;5020204;28;20041;-93
2022/07/23 05:45:30;;;;;;;9.25;3.10;;;15.60;99.90;;;;;;5039406;28;20046;-93
2022/07/23 05:47:56;;;;;;;3.70;1.85;;;15.70;99.90;;;;;;5038566;28;20049;-93
2022/07/23 05:50:22;;;;;;;4.50;1.55;;;15.80;99.90;;;;;;4989204;28;20052;-93
2022/07/23 05:52:48;;;;;;;4.47;2.45;;;15.90;99.90;;;;;;5019230;28;20053;-93
2022/07/23 05:55:13;;;;;;;4.63;1.50;;;16.00;99.90;;;;;;5038883;28;20407;-94
2022/07/23 05:57:41;;;;;;;1.92;1.45;;;16.00;99.90;;;;;;5033259;28;20096;-95
2022/07/23 06:00:09;;;;;;;3.63;1.67;;;16.10;99.90;;;;;;5015132;28;20088;-94
2022/07/23 06:02:35;;;;;;;2.17;1.40;;;16.20;99.90;;;;;;5031496;28;20485;-93
2022/07/23 06:05:01;;;;;;;2.25;1.30;;;16.20;99.90;;;;;;5015341;28;20048;-94
2022/07/23 06:07:27;;;;;;;1.90;1.20;;;16.10;99.90;;;;;;4999687;28;20057;-93
2022/07/23 06:09:52;;;;;;;2.85;1.48;;;16.20;99.90;;;;;;5015523;28;20064;-93
2022/07/23 06:12:18;;;;;;;2.45;1.65;;;16.10;99.90;;;;;;5032034;28;20041;-93
2022/07/23 06:14:52;;;;;;;6.28;1.48;;;16.10;99.90;;;;;;5014960;28;20045;-93
2022/07/23 06:17:18;;;;;;;4.28;1.70;;;16.10;99.90;;;;;;5030896;28;20063;-92
2022/07/23 06:19:44;;;;;;;6.28;3.03;;;16.10;99.90;;;;;;5029453;28;20132;-94
2022/07/23 06:22:10;;;;;;;2.25;1.17;;;16.00;99.90;;;;;;5029247;28;20480;-93
2022/07/23 06:24:35;;;;;;;3.13;1.42;;;16.00;99.90;;;;;;5029943;28;20266;-93
2022/07/23 06:27:01;;;;;;;6.18;1.00;;;16.00;99.90;;;;;;5030593;28;20504;-94
2022/07/23 06:29:27;;;;;;;2.40;0.93;;;16.10;99.90;;;;;;4982804;28;20056;-94
2022/07/23 06:31:53;;;;;;;2.33;1.05;;;16.20;99.90;;;;;;4995855;28;20092;-93
2022/07/23 06:34:18;;;;;;;7.65;1.10;;;16.30;99.90;;;;;;5029855;28;20045;-94
2022/07/23 06:36:44;;;;;;;2.10;1.00;;;16.40;99.90;;;;;;4981058;28;20045;-92
2022/07/23 06:39:10;;;;;;;1.40;0.60;;;16.40;99.90;;;;;;5015134;28;20055;-92
2022/07/23 06:41:35;;;;;;;3.33;0.80;;;16.50;99.90;;;;;;5030634;28;20041;-93
2022/07/23 06:44:01;;;;;;;1.35;0.90;;;16.60;99.90;;;;;;4997853;28;20290;-93
2022/07/23 06:46:27;;;;;;;1.75;0.70;;;16.70;99.90;;;;;;4984712;28;20045;-92
2022/07/23 06:48:53;;;;;;;1.90;0.65;;;16.20;99.90;;;;;;5033540;28;20033;-92
2022/07/23 06:51:18;;;;;;;2.15;0.60;;;16.90;99.90;;;;;;5020891;28;20113;-93
2022/07/23 06:53:44;;;;;;;2.80;0.98;;;16.90;99.90;;;;;;5035269;28;20065;-93
2022/07/23 06:56:10;;;;;;;1.75;0.52;;;17.00;99.90;;;;;;5036424;28;20057;-92
2022/07/23 06:58:36;;;;;;;1.85;0.43;;;16.90;99.90;;;;;;5020324;28;20049;-92
2022/07/23 07:01:02;;;;;;;1.75;0.90;;;17.10;99.90;;;;;;5031580;28;20049;-94
2022/07/23 07:03:28;;;;;;;2.75;0.55;;;17.20;99.90;;;;;;5014741;28;20041;-94
2022/07/23 07:05:53;;;;;;;2.85;0.68;;;17.30;99.90;;;;;;5032364;28;20068;-92
2022/07/23 07:08:20;;;;;;;0.85;0.60;;;17.50;99.90;;;;;;5036010;28;20055;-92
2022/07/23 07:10:46;;;;;;;1.25;0.60;;;17.60;99.90;;;;;;5032640;28;20041;-94
2022/07/23 07:13:12;;;;;;;5.57;0.90;;;17.70;99.90;;;;;;5033913;28;20044;-95
2022/07/23 07:15:38;;;;;;;1.25;0.38;;;18.00;99.90;;;;;;5033587;28;20437;-94
2022/07/23 07:18:03;;;;;;;0.95;0.70;;;17.80;99.90;;;;;;5017044;28;20072;-94
2022/07/23 07:20:29;;;;;;;1.77;0.60;;;17.80;99.90;;;;;;5005467;28;20052;-95
2022/07/23 07:22:55;;;;;;;1.23;0.70;;;17.90;99.90;;;;;;5024317;28;20045;-95
2022/07/23 07:25:21;;;;;;;0.82;0.32;;;17.90;99.90;;;;;;5043210;28;20045;-92
2022/07/23 07:27:46;;;;;;;2.47;0.50;;;18.00;99.90;;;;;;5025970;28;20063;-95
2022/07/23 07:30:13;;;;;;;0.73;0.28;;;18.00;99.90;;;;;;5029873;28;20033;-91
2022/07/23 07:32:39;;;;;;;1.60;0.20;;;18.10;99.90;;;;;;5045433;28;20052;-94
2022/07/23 07:35:05;;;;;;;1.17;0.15;;;18.20;99.90;;;;;;5045588;28;20045;-92
2022/07/23 07:37:31;;;;;;;0.20;0.10;;;18.50;99.90;;;;;;5028463;28;20101;-94
2022/07/23 07:39:57;;;;;;;0.57;0.28;;;18.60;99.90;;;;;;5035350;28;20087;-93
2022/07/23 07:42:23;;;;;;;0.75;0.20;;;18.90;99.90;;;;;;5018248;28;20484;-92
2022/07/23 07:44:48;;;;;;;0.40;0.20;;;19.10;99.90;;;;;;5015908;28;20052;-94
2022/07/23 07:47:15;;;;;;;1.65;0.30;;;19.30;99.90;;;;;;5017549;28;20104;-94
2022/07/23 07:49:44;;;;;;;1.27;0.25;;;19.40;99.90;;;;;;5031487;28;20434;-93
2022/07/23 07:52:12;;;;;;;2.80;0.28;;;19.40;99.90;;;;;;5031537;28;20045;-93
2022/07/23 07:54:38;;;;;;;1.30;0.20;;;19.30;99.90;;;;;;5015106;28;20128;-93
2022/07/23 07:57:03;;;;;;;4.68;0.40;;;19.30;99.90;;;;;;4997566;28;20146;-93
2022/07/23 07:59:29;;;;;;;4.97;0.52;;;19.30;99.90;;;;;;5016040;28;20045;-93
2022/07/23 08:01:55;;;;;;;0.38;0.28;;;19.30;99.90;;;;;;5030464;28;20131;-93
2022/07/23 08:04:21;;;;;;;1.70;0.22;;;18.70;99.90;;;;;;5015300;28;20060;-93
2022/07/23 08:06:46;;;;;;;0.77;0.20;;;19.50;99.90;;;;;;5026740;28;20065;-94
2022/07/23 08:09:12;;;;;;;3.75;0.30;;;19.60;99.90;;;;;;5015718;28;20544;-94
2022/07/23 08:11:41;;;;;;;1.55;0.20;;;19.70;99.90;;;;;;4984375;28;20056;-93
2022/07/23 08:14:07;;;;;;;1.75;0.40;;;19.90;99.90;;;;;;5015895;28;20053;-94
2022/07/23 08:16:32;;;;;;;1.75;0.20;;;19.90;99.90;;;;;;5019271;28;20050;-94
2022/07/23 08:18:58;;;;;;;1.27;0.10;;;19.80;99.90;;;;;;5019147;28;20472;-91
2022/07/23 08:21:24;;;;;;;1.48;0.20;;;19.70;99.90;;;;;;5020875;28;20044;-93
2022/07/23 08:23:50;;;;;;;0.63;0.17;;;19.70;99.90;;;;;;5034798;28;20045;-94
2022/07/23 08:26:16;;;;;;;0.65;0.30;;;19.00;99.90;;;;;;5020490;28;20127;-94
2022/07/23 08:28:41;;;;;;;0.40;0.17;;;19.50;99.90;;;;;;4986080;28;20042;-92
2022/07/23 08:31:07;;;;;;;0.65;0.15;;;19.50;99.90;;;;;;5036748;28;20043;-94
2022/07/23 08:33:33;;;;;;;0.25;0.10;;;19.70;99.90;;;;;;5020480;28;20045;-94
2022/07/23 08:36:00;;;;;;;3.00;0.30;;;19.90;99.90;;;;;;5020495;28;20071;-93
2022/07/23 08:38:25;;;;;;;0.55;0.20;;;20.20;99.90;;;;;;5004097;28;20095;-93
2022/07/23 08:40:54;;;;;;;2.47;0.17;;;20.30;99.90;;;;;;5036030;28;20128;-91
2022/07/23 08:43:24;;;;;;;1.00;0.17;;;20.40;99.90;;;;;;5039720;28;20091;-93
2022/07/23 08:45:52;;;;;;;0.95;0.20;;;20.40;99.90;;;;;;5035025;28;20235;-93
2022/07/23 08:48:20;;;;;;;0.30;0.30;;;20.40;99.90;;;;;;5037472;28;20136;-93
2022/07/23 08:50:50;;;;;;;0.38;0.10;;;20.30;99.90;;;;;;5035600;28;20080;-91
2022/07/23 08:53:17;;;;;;;1.35;0.20;;;20.30;99.90;;;;;;5036609;28;20080;-96
2022/07/23 08:55:45;;;;;;;0.55;0.20;;;20.20;99.90;;;;;;5037202;28;20037;-96
2022/07/23 08:58:11;;;;;;;1.10;0.20;;;20.30;99.90;;;;;;5019980;28;20037;-96
2022/07/23 09:00:37;;;;;;;2.15;0.30;;;20.40;99.90;;;;;;5036968;28;20060;-93
2022/07/23 09:03:03;;;;;;;1.13;0.25;;;20.50;99.90;;;;;;5019772;28;20042;-95
2022/07/23 09:05:29;;;;;;;0.77;0.17;;;20.70;99.90;;;;;;5020780;28;20084;-93
2022/07/23 09:08:04;;;;;;;1.17;0.20;;;20.90;99.90;;;;;;5032836;28;20053;-93
2022/07/23 09:10:31;;;;;;;0.88;0.17;;;20.90;99.90;;;;;;5035697;28;20046;-94
2022/07/23 09:12:57;;;;;;;0.85;0.20;;;20.90;99.90;;;;;;5037356;28;20049;-92
2022/07/23 09:15:23;;;;;;;0.95;0.10;;;21.00;99.90;;;;;;5034880;28;20037;-92
2022/07/23 09:17:48;;;;;;;1.15;0.22;;;21.10;99.90;;;;;;5020320;28;20046;-94
2022/07/23 09:20:16;;;;;;;1.33;0.20;;;21.20;99.90;;;;;;4987924;28;20052;-94
2022/07/23 09:22:47;;;;;;;0.35;0.10;;;21.10;99.90;;;;;;4990986;28;20038;-89
2022/07/23 09:25:18;;;;;;;0.47;0.20;;;21.00;99.90;;;;;;5020994;28;20049;-96
2022/07/23 09:27:55;;;;;;;3.05;0.30;;;21.60;99.90;;;;;;5041290;28;20183;-96
2022/07/23 09:30:39;;;;;;;0.13;0.10;;;21.00;99.90;;;;;;5043828;28;20740;-95
2022/07/23 09:33:10;;;;;;;6.00;0.25;;;21.10;99.90;;;;;;5041050;28;20050;-92
2022/07/23 09:35:58;;;;;;;0.10;0.10;;;21.10;99.90;;;;;;5040933;28;20048;-93
2022/07/23 09:38:25;;;;;;;1.10;0.10;;;21.10;99.90;;;;;;5040191;28;20068;-94
2022/07/23 09:41:11;;;;;;;0.63;0.20;;;21.10;99.90;;;;;;4991109;28;20084;-94
2022/07/23 09:43:37;;;;;;;2.85;0.32;;;21.20;99.90;;;;;;5021598;28;20052;-91
2022/07/23 09:46:27;;;;;;;1.10;0.22;;;21.30;99.90;;;;;;5022135;28;20037;-93
2022/07/23 09:48:56;;;;;;;2.50;0.20;;;21.30;99.90;;;;;;5037289;28;20049;-96
2022/07/23 09:51:41;;;;;;;1.83;0.30;;;21.30;99.90;;;;;;5025010;28;20061;-95
2022/07/23 09:54:34;;;;;;;1.48;0.35;;;21.30;99.90;;;;;;5044436;28;20088;-96
2022/07/23 09:57:12;;;;;;;2.47;0.40;;;21.40;99.90;;;;;;5046974;28;20050;-96
2022/07/23 09:59:47;;;;;;;0.57;0.20;;;21.60;99.90;;;;;;4976865;28;20136;-96
2022/07/23 10:02:14;;;;;;;0.68;0.22;;;21.70;99.90;;;;;;5005486;28;20061;-96
2022/07/23 10:04:41;;;;;;;0.75;0.20;;;21.80;99.90;;;;;;5006201;28;20084;-96
2022/07/23 10:07:10;;;;;;;2.45;0.47;;;21.50;99.90;;;;;;4996662;28;20046;-94
2022/07/23 10:09:38;;;;;;;0.32;0.15;;;21.80;99.90;;;;;;5007838;28;20118;-93
2022/07/23 10:14:40;;;;;;;0.82;0.20;;;21.80;99.90;;;;;;5037681;28;20414;-95
2022/07/23 10:17:06;;;;;;;1.45;0.30;;;21.70;99.90;;;;;;4971452;28;20048;-91
2022/07/23 10:19:33;;;;;;;1.13;0.20;;;21.70;99.90;;;;;;4970860;28;20058;-93
2022/07/23 10:22:22;;;;;;;1.75;0.22;;;21.70;99.90;;;;;;5003495;28;20046;-93
2022/07/23 10:25:16;;;;;;;0.40;0.20;;;21.10;99.90;;;;;;5006206;28;20050;-91
2022/07/23 10:27:50;;;;;;;3.92;0.40;;;21.40;99.90;;;;;;5002599;28;20552;-92
2022/07/23 10:30:49;;;;;;;3.80;0.30;;;21.30;99.90;;;;;;5008562;28;20108;-93
2022/07/23 10:33:54;;;;;;;2.85;0.30;;;21.20;99.90;;;;;;5000745;28;20054;-93
2022/07/23 10:37:01;;;;;;;1.25;0.30;;;21.20;99.90;;;;;;5037336;28;20049;-93
2022/07/23 10:39:34;;;;;;;0.85;0.13;;;21.30;99.90;;;;;;5035765;28;20050;-93
2022/07/23 10:42:11;;;;;;;0.50;0.30;;;21.30;99.90;;;;;;5035828;28;20049;-93
2022/07/23 10:44:42;;;;;;;0.85;0.28;;;21.10;99.90;;;;;;5018438;28;20052;-93
2022/07/23 10:49:48;;;;;;;4.05;0.47;;;21.40;99.90;;;;;;5022936;28;20045;-93
2022/07/23 10:52:33;;;;;;;0.60;0.28;;;21.40;99.90;;;;;;5019328;28;20037;-93
2022/07/23 10:55:02;;;;;;;4.22;0.40;;;21.60;99.90;;;;;;5037320;28;20049;-94
2022/07/23 10:57:29;;;;;;;1.63;0.25;;;21.80;99.90;;;;;;5036401;28;20092;-93
2022/07/23 11:00:02;;;;;;;1.95;0.50;;;21.50;99.90;;;;;;5021944;28;20045;-95
2022/07/23 11:02:35;;;;;;;1.33;0.57;;;22.20;99.90;;;;;;5020292;28;20045;-94
2022/07/23 11:05:47;;;;;;;0.35;0.30;;;22.30;99.90;;;;;;5024282;28;20041;-96
2022/07/23 11:08:23;;;;;;;1.67;0.75;;;22.20;99.90;;;;;;5016632;28;20047;-90
2022/07/23 11:11:11;;;;;;;4.78;0.65;;;22.30;99.90;;;;;;5036144;28;20100;-94
2022/07/23 11:13:44;;;;;;;2.20;0.50;;;22.00;99.90;;;;;;5035091;28;20109;-93
2022/07/23 11:16:10;;;;;;;2.38;0.52;;;22.00;99.90;;;;;;5018818;28;20049;-94
2022/07/23 11:18:39;;;;;;;3.15;0.40;;;21.70;99.90;;;;;;5037620;28;20047;-93
2022/07/23 11:21:21;;;;;;;1.58;0.60;;;21.80;99.90;;;;;;5035171;28;20084;-94
2022/07/23 11:24:06;;;;;;;1.05;0.40;;;21.80;99.90;;;;;;5033968;28;20045;-89
2022/07/23 11:26:39;;;;;;;2.33;0.45;;;21.80;99.90;;;;;;5034874;28;20052;-93
2022/07/23 11:29:33;;;;;;;1.25;0.40;;;21.70;99.90;;;;;;5033891;28;20115;-93
2022/07/23 11:32:22;;;;;;;1.27;0.40;;;21.70;99.90;;;;;;5035767;28;20046;-91
2022/07/23 11:34:50;;;;;;;3.65;0.38;;;21.60;99.90;;;;;;5033716;28;20046;-91
2022/07/23 11:37:33;;;;;;;1.63;0.30;;;21.50;99.90;;;;;;5015135;28;20052;-90
2022/07/23 11:40:00;;;;;;;0.70;0.40;;;21.50;99.90;;;;;;5032937;28;20038;-92
2022/07/23 11:42:26;;;;;;;6.28;0.75;;;21.50;99.90;;;;;;5035786;28;20041;-93
2022/07/23 11:45:21;;;;;;;1.80;0.40;;;21.50;99.90;;;;;;5004618;28;20038;-94
2022/07/23 11:47:47;;;;;;;2.28;0.68;;;21.40;99.90;;;;;;5034035;28;20042;-91
2022/07/23 11:50:24;;;;;;;0.30;0.20;;;21.30;99.90;;;;;;5049695;28;20046;-90
2022/07/23 11:52:50;;;;;;;1.40;0.40;;;20.80;99.90;;;;;;5038795;28;20080;-91
2022/07/23 11:55:16;;;;;;;1.30;0.40;;;21.40;99.90;;;;;;5021047;28;20037;-90
2022/07/23 11:57:43;;;;;;;2.08;0.40;;;21.10;99.90;;;;;;5023221;28;20057;-92
2022/07/23 12:00:18;;;;;;;2.67;0.50;;;21.60;99.90;;;;;;5039785;28;20134;-90
2022/07/23 12:02:50;;;;;;;0.70;0.20;;;21.80;99.90;;;;;;5038560;28;20039;-90
2022/07/23 12:05:25;;;;;;;1.27;0.30;;;22.20;99.90;;;;;;5038136;28;20045;-91
2022/07/23 12:07:53;;;;;;;1.25;0.60;;;22.40;99.90;;;;;;5021138;28;20061;-90
2022/07/23 12:10:25;;;;;;;3.15;0.40;;;22.50;99.90;;;;;;5021860;28;20523;-91
2022/07/23 12:13:03;;;;;;;1.50;0.35;;;22.50;99.90;;;;;;5055072;28;20041;-90
2022/07/23 12:15:38;;;;;;;2.08;0.60;;;22.50;99.90;;;;;;5031173;28;20488;-92
2022/07/23 12:18:06;;;;;;;3.53;0.35;;;22.60;99.90;;;;;;5039697;28;20049;-92
2022/07/23 12:20:41;;;;;;;1.95;0.40;;;22.70;99.90;;;;;;5001685;28;20108;-90
2022/07/23 12:23:09;;;;;;;3.45;0.55;;;22.70;99.90;;;;;;5039501;28;20057;-92
2022/07/23 12:25:38;;;;;;;2.40;0.35;;;22.70;99.90;;;;;;5024063;28;20045;-92
2022/07/23 12:28:16;;;;;;;0.60;0.30;;;22.20;99.90;;;;;;5040692;28;20029;-91
2022/07/23 12:30:52;;;;;;;2.90;0.57;;;22.50;99.90;;;;;;5039222;28;20047;-92
2022/07/23 12:33:44;;;;;;;0.95;0.28;;;22.60;99.90;;;;;;5039444;28;20042;-90
2022/07/23 12:36:11;;;;;;;1.15;0.30;;;22.70;99.90;;;;;;5003921;28;20053;-91
2022/07/23 12:38:43;;;;;;;0.30;0.20;;;22.70;99.90;;;;;;5004646;28;20057;-91
2022/07/23 12:41:09;;;;;;;1.45;0.32;;;23.50;99.90;;;;;;5037944;28;20049;-91
2022/07/23 12:43:40;;;;;;;1.88;0.70;;;22.60;99.90;;;;;;5036785;28;20056;-91
2022/07/23 12:46:19;;;;;;;1.60;0.35;;;23.70;99.90;;;;;;5037116;28;20049;-93
2022/07/23 12:48:51;;;;;;;3.60;0.30;;;23.70;99.40;;;;;;5037440;28;20053;-91
2022/07/23 12:51:23;;;;;;;1.08;0.28;;;23.80;99.20;;;;;;5037998;28;20487;-91
2022/07/23 12:53:53;;;;;;;2.20;0.45;;;24.00;99.00;;;;;;5039522;28;20046;-91
2022/07/23 12:56:30;;;;;;;3.55;0.52;;;24.10;98.70;;;;;;5021686;28;20057;-91
2022/07/23 12:59:00;;;;;;;2.72;0.43;;;24.20;97.40;;;;;;5037830;28;20049;-90
2022/07/23 13:01:34;;;;;;;1.10;0.45;;;24.30;98.60;;;;;;5036796;28;20053;-91
2022/07/23 13:04:08;;;;;;;1.08;0.43;;;24.60;98.80;;;;;;5038482;28;20397;-91